sensor_id;sensor_type;location;lat;lon;timestamp;pressure;altitude;pressure_sealevel;temperature
45976;BMP280;31696;42.668;23.322;2023-07-13T00:01:18;94950.69;;;22.61
45976;BMP280;31696;42.668;23.322;2023-07-13T00:03:19;94957.50;;;22.66
45976;BMP280;31696;42.668;23.322;2023-07-13T00:05:23;94950.84;;;22.65
45976;BMP280;31696;42.668;23.322;2023-07-13T00:07:23;94949.34;;;22.60
45976;BMP280;31696;42.668;23.322;2023-07-13T00:09:24;94951.88;;;22.57
45976;BMP280;31696;42.668;23.322;2023-07-13T00:11:24;94951.50;;;22.47
45976;BMP280;31696;42.668;23.322;2023-07-13T00:13:25;94947.00;;;22.34
45976;BMP280;31696;42.668;23.322;2023-07-13T00:15:25;94948.00;;;22.43
45976;BMP280;31696;42.668;23.322;2023-07-13T00:17:26;94939.22;;;22.38
45976;BMP280;31696;42.668;23.322;2023-07-13T00:19:27;94936.03;;;22.42
45976;BMP280;31696;42.668;23.322;2023-07-13T00:21:27;94940.75;;;22.43
45976;BMP280;31696;42.668;23.322;2023-07-13T00:23:28;94938.69;;;22.42
45976;BMP280;31696;42.668;23.322;2023-07-13T00:25:28;94932.50;;;22.35
45976;BMP280;31696;42.668;23.322;2023-07-13T00:27:28;94943.97;;;22.42
45976;BMP280;31696;42.668;23.322;2023-07-13T00:29:31;94938.63;;;22.40
45976;BMP280;31696;42.668;23.322;2023-07-13T00:31:34;94943.16;;;22.37
45976;BMP280;31696;42.668;23.322;2023-07-13T00:33:35;94934.22;;;22.29
45976;BMP280;31696;42.668;23.322;2023-07-13T00:35:35;94939.88;;;22.21
45976;BMP280;31696;42.668;23.322;2023-07-13T00:37:36;94930.50;;;22.18
45976;BMP280;31696;42.668;23.322;2023-07-13T00:39:37;94935.44;;;22.10
45976;BMP280;31696;42.668;23.322;2023-07-13T00:41:37;94931.69;;;22.15
45976;BMP280;31696;42.668;23.322;2023-07-13T00:43:38;94935.09;;;22.18
45976;BMP280;31696;42.668;23.322;2023-07-13T00:47:45;94940.56;;;22.22
45976;BMP280;31696;42.668;23.322;2023-07-13T00:49:46;94939.09;;;22.19
45976;BMP280;31696;42.668;23.322;2023-07-13T00:51:56;94939.09;;;22.19
45976;BMP280;31696;42.668;23.322;2023-07-13T00:53:57;94942.03;;;22.09
45976;BMP280;31696;42.668;23.322;2023-07-13T00:55:58;94937.94;;;22.06
45976;BMP280;31696;42.668;23.322;2023-07-13T00:57:59;94925.31;;;22.05
45976;BMP280;31696;42.668;23.322;2023-07-13T01:00:00;94935.22;;;22.04
45976;BMP280;31696;42.668;23.322;2023-07-13T01:02:06;94942.28;;;21.84
45976;BMP280;31696;42.668;23.322;2023-07-13T01:04:07;94932.91;;;21.81
45976;BMP280;31696;42.668;23.322;2023-07-13T01:06:08;94930.44;;;21.85
45976;BMP280;31696;42.668;23.322;2023-07-13T01:08:08;94929.06;;;21.84
45976;BMP280;31696;42.668;23.322;2023-07-13T01:10:09;94922.00;;;21.89
45976;BMP280;31696;42.668;23.322;2023-07-13T01:12:09;94929.53;;;21.78
45976;BMP280;31696;42.668;23.322;2023-07-13T01:14:10;94929.00;;;21.82
45976;BMP280;31696;42.668;23.322;2023-07-13T01:16:13;94923.72;;;21.82
45976;BMP280;31696;42.668;23.322;2023-07-13T01:18:16;94934.28;;;21.82
45976;BMP280;31696;42.668;23.322;2023-07-13T01:20:18;94919.53;;;21.77
45976;BMP280;31696;42.668;23.322;2023-07-13T01:22:19;94920.13;;;21.75
45976;BMP280;31696;42.668;23.322;2023-07-13T01:24:19;94916.72;;;21.73
45976;BMP280;31696;42.668;23.322;2023-07-13T01:26:20;94915.94;;;21.86
45976;BMP280;31696;42.668;23.322;2023-07-13T01:28:21;94912.22;;;21.75
45976;BMP280;31696;42.668;23.322;2023-07-13T01:30:22;94914.94;;;21.77
45976;BMP280;31696;42.668;23.322;2023-07-13T01:32:23;94927.22;;;21.71
45976;BMP280;31696;42.668;23.322;2023-07-13T01:34:24;94922.84;;;21.77
45976;BMP280;31696;42.668;23.322;2023-07-13T01:36:24;94926.34;;;21.66
45976;BMP280;31696;42.668;23.322;2023-07-13T01:38:25;94924.72;;;21.75
45976;BMP280;31696;42.668;23.322;2023-07-13T01:40:25;94928.56;;;21.72
45976;BMP280;31696;42.668;23.322;2023-07-13T01:42:26;94914.00;;;21.71
45976;BMP280;31696;42.668;23.322;2023-07-13T01:44:28;94918.09;;;21.43
45976;BMP280;31696;42.668;23.322;2023-07-13T01:46:28;94916.38;;;21.65
45976;BMP280;31696;42.668;23.322;2023-07-13T01:48:29;94919.97;;;21.56
45976;BMP280;31696;42.668;23.322;2023-07-13T01:50:29;94915.63;;;21.62
45976;BMP280;31696;42.668;23.322;2023-07-13T01:52:30;94932.06;;;21.61
45976;BMP280;31696;42.668;23.322;2023-07-13T01:54:32;94923.38;;;21.58
45976;BMP280;31696;42.668;23.322;2023-07-13T01:56:34;94925.63;;;21.64
45976;BMP280;31696;42.668;23.322;2023-07-13T01:58:34;94914.94;;;21.62
45976;BMP280;31696;42.668;23.322;2023-07-13T02:00:34;94922.16;;;21.46
45976;BMP280;31696;42.668;23.322;2023-07-13T02:02:36;94928.13;;;21.46
45976;BMP280;31696;42.668;23.322;2023-07-13T02:04:36;94920.63;;;21.41
45976;BMP280;31696;42.668;23.322;2023-07-13T02:06:36;94932.66;;;21.44
45976;BMP280;31696;42.668;23.322;2023-07-13T02:08:37;94928.66;;;21.43
45976;BMP280;31696;42.668;23.322;2023-07-13T02:10:37;94932.72;;;21.46
45976;BMP280;31696;42.668;23.322;2023-07-13T02:12:38;94928.66;;;21.43
45976;BMP280;31696;42.668;23.322;2023-07-13T02:14:38;94931.34;;;21.45
45976;BMP280;31696;42.668;23.322;2023-07-13T02:16:39;94928.44;;;21.39
45976;BMP280;31696;42.668;23.322;2023-07-13T02:18:39;94928.97;;;21.35
45976;BMP280;31696;42.668;23.322;2023-07-13T02:20:39;94917.53;;;21.31
45976;BMP280;31696;42.668;23.322;2023-07-13T02:22:40;94938.28;;;21.36
45976;BMP280;31696;42.668;23.322;2023-07-13T02:24:40;94934.50;;;21.41
45976;BMP280;31696;42.668;23.322;2023-07-13T02:26:41;94948.84;;;21.36
45976;BMP280;31696;42.668;23.322;2023-07-13T02:28:41;94935.91;;;21.29
45976;BMP280;31696;42.668;23.322;2023-07-13T02:30:41;94930.63;;;21.29
45976;BMP280;31696;42.668;23.322;2023-07-13T02:32:42;94936.13;;;21.33
45976;BMP280;31696;42.668;23.322;2023-07-13T02:34:43;94931.69;;;21.37
45976;BMP280;31696;42.668;23.322;2023-07-13T02:36:44;94942.28;;;21.53
45976;BMP280;31696;42.668;23.322;2023-07-13T02:38:44;94933.38;;;21.31
45976;BMP280;31696;42.668;23.322;2023-07-13T02:40:45;94933.03;;;21.23
45976;BMP280;31696;42.668;23.322;2023-07-13T02:42:46;94932.34;;;21.22
45976;BMP280;31696;42.668;23.322;2023-07-13T02:44:46;94928.16;;;21.17
45976;BMP280;31696;42.668;23.322;2023-07-13T02:46:47;94940.84;;;21.21
45976;BMP280;31696;42.668;23.322;2023-07-13T02:48:47;94939.50;;;21.20
45976;BMP280;31696;42.668;23.322;2023-07-13T02:50:48;94937.19;;;21.12
45976;BMP280;31696;42.668;23.322;2023-07-13T02:52:48;94934.31;;;21.22
45976;BMP280;31696;42.668;23.322;2023-07-13T02:54:49;94940.09;;;21.18
45976;BMP280;31696;42.668;23.322;2023-07-13T02:56:49;94938.28;;;21.07
45976;BMP280;31696;42.668;23.322;2023-07-13T02:58:50;94938.56;;;21.13
45976;BMP280;31696;42.668;23.322;2023-07-13T03:00:51;94940.31;;;21.08
45976;BMP280;31696;42.668;23.322;2023-07-13T03:02:51;94938.97;;;21.08
45976;BMP280;31696;42.668;23.322;2023-07-13T03:04:52;94943.22;;;21.15
45976;BMP280;31696;42.668;23.322;2023-07-13T03:06:53;94942.88;;;21.06
45976;BMP280;31696;42.668;23.322;2023-07-13T03:08:58;94940.69;;;21.17
45976;BMP280;31696;42.668;23.322;2023-07-13T03:11:07;94946.97;;;21.09
45976;BMP280;31696;42.668;23.322;2023-07-13T03:13:11;94945.34;;;21.02
45976;BMP280;31696;42.668;23.322;2023-07-13T03:15:11;94953.78;;;21.15
45976;BMP280;31696;42.668;23.322;2023-07-13T03:17:16;94949.72;;;21.12
45976;BMP280;31696;42.668;23.322;2023-07-13T03:19:17;94943.88;;;20.99
45976;BMP280;31696;42.668;23.322;2023-07-13T03:21:21;94950.69;;;21.04
45976;BMP280;31696;42.668;23.322;2023-07-13T03:23:22;94953.94;;;21.03
45976;BMP280;31696;42.668;23.322;2023-07-13T03:25:22;94957.84;;;21.02
45976;BMP280;31696;42.668;23.322;2023-07-13T03:27:23;94942.94;;;21.08
45976;BMP280;31696;42.668;23.322;2023-07-13T03:29:24;94945.59;;;21.08
45976;BMP280;31696;42.668;23.322;2023-07-13T03:31:26;94951.06;;;21.13
45976;BMP280;31696;42.668;23.322;2023-07-13T03:33:27;94954.47;;;21.15
45976;BMP280;31696;42.668;23.322;2023-07-13T03:35:27;94962.97;;;21.14
45976;BMP280;31696;42.668;23.322;2023-07-13T03:37:27;94959.06;;;21.15
45976;BMP280;31696;42.668;23.322;2023-07-13T03:39:28;94961.44;;;21.08
45976;BMP280;31696;42.668;23.322;2023-07-13T03:41:31;94968.41;;;21.02
45976;BMP280;31696;42.668;23.322;2023-07-13T03:43:32;94980.53;;;21.07
45976;BMP280;31696;42.668;23.322;2023-07-13T03:45:32;94958.25;;;20.96
45976;BMP280;31696;42.668;23.322;2023-07-13T03:47:32;94955.78;;;21.00
45976;BMP280;31696;42.668;23.322;2023-07-13T03:49:36;94961.44;;;21.08
45976;BMP280;31696;42.668;23.322;2023-07-13T03:51:37;94956.84;;;21.09
45976;BMP280;31696;42.668;23.322;2023-07-13T03:53:39;94968.38;;;21.16
45976;BMP280;31696;42.668;23.322;2023-07-13T03:55:40;94959.06;;;21.15
45976;BMP280;31696;42.668;23.322;2023-07-13T03:57:40;94957.91;;;21.18
45976;BMP280;31696;42.668;23.322;2023-07-13T03:59:41;94958.78;;;21.08
45976;BMP280;31696;42.668;23.322;2023-07-13T04:01:43;94955.84;;;21.16
45976;BMP280;31696;42.668;23.322;2023-07-13T04:03:46;94965.91;;;21.20
45976;BMP280;31696;42.668;23.322;2023-07-13T04:05:47;94975.09;;;21.19
45976;BMP280;31696;42.668;23.322;2023-07-13T04:07:48;94955.53;;;21.24
45976;BMP280;31696;42.668;23.322;2023-07-13T04:09:48;94952.97;;;21.26
45976;BMP280;31696;42.668;23.322;2023-07-13T04:11:49;94951.59;;;21.25
45976;BMP280;31696;42.668;23.322;2023-07-13T04:13:49;94955.91;;;21.32
45976;BMP280;31696;42.668;23.322;2023-07-13T04:15:50;94951.41;;;21.21
45976;BMP280;31696;42.668;23.322;2023-07-13T04:17:50;94952.09;;;21.21
45976;BMP280;31696;42.668;23.322;2023-07-13T04:19:51;94954.34;;;21.27
45976;BMP280;31696;42.668;23.322;2023-07-13T04:21:51;94959.63;;;21.27
45976;BMP280;31696;42.668;23.322;2023-07-13T04:23:52;94954.19;;;21.38
45976;BMP280;31696;42.668;23.322;2023-07-13T04:25:52;94958.56;;;21.47
45976;BMP280;31696;42.668;23.322;2023-07-13T04:27:53;94961.63;;;21.42
45976;BMP280;31696;42.668;23.322;2023-07-13T04:29:53;94968.53;;;21.49
45976;BMP280;31696;42.668;23.322;2023-07-13T04:31:54;94972.88;;;21.58
45976;BMP280;31696;42.668;23.322;2023-07-13T04:33:54;94963.41;;;21.53
45976;BMP280;31696;42.668;23.322;2023-07-13T04:35:57;94969.03;;;21.61
45976;BMP280;31696;42.668;23.322;2023-07-13T04:37:59;94968.63;;;21.66
45976;BMP280;31696;42.668;23.322;2023-07-13T04:40:00;94974.69;;;21.85
45976;BMP280;31696;42.668;23.322;2023-07-13T04:42:09;94980.47;;;21.81
45976;BMP280;31696;42.668;23.322;2023-07-13T04:44:09;94975.34;;;21.85
45976;BMP280;31696;42.668;23.322;2023-07-13T04:46:11;94970.88;;;22.03
45976;BMP280;31696;42.668;23.322;2023-07-13T04:48:12;94976.31;;;21.92
45976;BMP280;31696;42.668;23.322;2023-07-13T04:50:12;94978.28;;;21.91
45976;BMP280;31696;42.668;23.322;2023-07-13T04:52:15;94981.34;;;22.01
45976;BMP280;31696;42.668;23.322;2023-07-13T04:54:15;94994.91;;;22.09
45976;BMP280;31696;42.668;23.322;2023-07-13T04:56:16;94984.59;;;22.15
45976;BMP280;31696;42.668;23.322;2023-07-13T04:58:17;94995.47;;;22.23
45976;BMP280;31696;42.668;23.322;2023-07-13T05:00:17;94998.81;;;22.24
45976;BMP280;31696;42.668;23.322;2023-07-13T05:02:17;94994.63;;;22.34
45976;BMP280;31696;42.668;23.322;2023-07-13T05:04:18;94995.78;;;22.47
45976;BMP280;31696;42.668;23.322;2023-07-13T05:06:18;94996.00;;;22.35
45976;BMP280;31696;42.668;23.322;2023-07-13T05:08:19;94986.94;;;22.40
45976;BMP280;31696;42.668;23.322;2023-07-13T05:10:19;94996.16;;;22.39
45976;BMP280;31696;42.668;23.322;2023-07-13T05:12:20;94994.47;;;22.64
45976;BMP280;31696;42.668;23.322;2023-07-13T05:14:20;95000.81;;;22.56
45976;BMP280;31696;42.668;23.322;2023-07-13T05:16:21;95004.13;;;22.57
45976;BMP280;31696;42.668;23.322;2023-07-13T05:18:21;95007.41;;;22.55
45976;BMP280;31696;42.668;23.322;2023-07-13T05:20:21;95011.63;;;22.63
45976;BMP280;31696;42.668;23.322;2023-07-13T05:22:22;95001.53;;;22.75
45976;BMP280;31696;42.668;23.322;2023-07-13T05:24:22;95004.31;;;23.12
45976;BMP280;31696;42.668;23.322;2023-07-13T05:26:22;95003.34;;;22.88
45976;BMP280;31696;42.668;23.322;2023-07-13T05:28:23;95002.50;;;22.83
45976;BMP280;31696;42.668;23.322;2023-07-13T05:30:23;95003.81;;;23.00
45976;BMP280;31696;42.668;23.322;2023-07-13T05:32:24;95007.59;;;22.95
45976;BMP280;31696;42.668;23.322;2023-07-13T05:34:24;95006.31;;;22.96
45976;BMP280;31696;42.668;23.322;2023-07-13T05:36:25;95002.31;;;22.95
45976;BMP280;31696;42.668;23.322;2023-07-13T05:38:25;95007.47;;;23.26
45976;BMP280;31696;42.668;23.322;2023-07-13T05:40:25;95013.66;;;23.15
45976;BMP280;31696;42.668;23.322;2023-07-13T05:42:26;95013.81;;;23.19
45976;BMP280;31696;42.668;23.322;2023-07-13T05:44:26;95012.25;;;23.12
45976;BMP280;31696;42.668;23.322;2023-07-13T05:46:27;95019.16;;;23.38
45976;BMP280;31696;42.668;23.322;2023-07-13T05:48:27;95005.72;;;23.32
45976;BMP280;31696;42.668;23.322;2023-07-13T05:50:28;95006.84;;;23.45
45976;BMP280;31696;42.668;23.322;2023-07-13T05:52:28;95017.72;;;23.90
45976;BMP280;31696;42.668;23.322;2023-07-13T05:54:28;95009.59;;;24.24
45976;BMP280;31696;42.668;23.322;2023-07-13T05:56:29;95012.47;;;23.92
45976;BMP280;31696;42.668;23.322;2023-07-13T05:58:30;95010.28;;;24.46
45976;BMP280;31696;42.668;23.322;2023-07-13T06:00:30;95036.50;;;24.16
45976;BMP280;31696;42.668;23.322;2023-07-13T06:02:31;95007.91;;;24.54
45976;BMP280;31696;42.668;23.322;2023-07-13T06:04:31;94994.22;;;24.83
45976;BMP280;31696;42.668;23.322;2023-07-13T06:06:31;94987.72;;;24.88
45976;BMP280;31696;42.668;23.322;2023-07-13T06:08:32;94990.47;;;25.37
45976;BMP280;31696;42.668;23.322;2023-07-13T06:10:33;94992.03;;;25.96
45976;BMP280;31696;42.668;23.322;2023-07-13T06:12:33;94992.88;;;25.76
45976;BMP280;31696;42.668;23.322;2023-07-13T06:14:34;95008.06;;;25.98
45976;BMP280;31696;42.668;23.322;2023-07-13T06:16:34;95007.03;;;26.64
45976;BMP280;31696;42.668;23.322;2023-07-13T06:18:36;95008.00;;;27.08
45976;BMP280;31696;42.668;23.322;2023-07-13T06:20:36;95009.66;;;27.25
45976;BMP280;31696;42.668;23.322;2023-07-13T06:22:37;95006.25;;;27.54
45976;BMP280;31696;42.668;23.322;2023-07-13T06:24:37;95011.31;;;27.74
45976;BMP280;31696;42.668;23.322;2023-07-13T06:26:37;95011.72;;;27.98
45976;BMP280;31696;42.668;23.322;2023-07-13T06:28:38;95011.38;;;28.18
45976;BMP280;31696;42.668;23.322;2023-07-13T06:30:39;95012.41;;;28.84
45976;BMP280;31696;42.668;23.322;2023-07-13T06:32:40;95017.97;;;29.00
45976;BMP280;31696;42.668;23.322;2023-07-13T06:34:40;95011.97;;;29.02
45976;BMP280;31696;42.668;23.322;2023-07-13T06:36:40;95007.03;;;29.36
45976;BMP280;31696;42.668;23.322;2023-07-13T06:38:41;95006.66;;;29.62
45976;BMP280;31696;42.668;23.322;2023-07-13T06:40:41;95006.66;;;29.60
45976;BMP280;31696;42.668;23.322;2023-07-13T06:42:42;95005.66;;;29.97
45976;BMP280;31696;42.668;23.322;2023-07-13T06:44:42;95010.50;;;30.12
45976;BMP280;31696;42.668;23.322;2023-07-13T06:46:42;95003.72;;;30.03
45976;BMP280;31696;42.668;23.322;2023-07-13T06:48:43;95004.56;;;30.24
45976;BMP280;31696;42.668;23.322;2023-07-13T06:50:43;95000.09;;;30.56
45976;BMP280;31696;42.668;23.322;2023-07-13T06:52:44;95003.69;;;30.99
45976;BMP280;31696;42.668;23.322;2023-07-13T06:54:44;95001.06;;;31.13
45976;BMP280;31696;42.668;23.322;2023-07-13T06:56:44;95003.13;;;31.27
45976;BMP280;31696;42.668;23.322;2023-07-13T06:58:45;95005.19;;;31.44
45976;BMP280;31696;42.668;23.322;2023-07-13T07:00:46;95006.47;;;31.25
45976;BMP280;31696;42.668;23.322;2023-07-13T07:02:46;95007.91;;;31.56
45976;BMP280;31696;42.668;23.322;2023-07-13T07:04:46;95009.22;;;31.41
45976;BMP280;31696;42.668;23.322;2023-07-13T07:06:47;95017.31;;;31.69
45976;BMP280;31696;42.668;23.322;2023-07-13T07:08:47;95006.56;;;31.57
45976;BMP280;31696;42.668;23.322;2023-07-13T07:10:48;95007.94;;;31.81
45976;BMP280;31696;42.668;23.322;2023-07-13T07:12:51;94998.56;;;32.04
45976;BMP280;31696;42.668;23.322;2023-07-13T07:14:52;94997.19;;;31.91
45976;BMP280;31696;42.668;23.322;2023-07-13T07:16:52;94995.88;;;31.90
45976;BMP280;31696;42.668;23.322;2023-07-13T07:18:52;94991.03;;;31.22
45976;BMP280;31696;42.668;23.322;2023-07-13T07:20:53;95002.50;;;31.42
45976;BMP280;31696;42.668;23.322;2023-07-13T07:22:53;94994.44;;;31.38
45976;BMP280;31696;42.668;23.322;2023-07-13T07:24:53;94990.22;;;30.85
45976;BMP280;31696;42.668;23.322;2023-07-13T07:26:54;94981.59;;;31.01
45976;BMP280;31696;42.668;23.322;2023-07-13T07:28:54;94987.59;;;30.95
45976;BMP280;31696;42.668;23.322;2023-07-13T07:30:55;94985.00;;;31.21
45976;BMP280;31696;42.668;23.322;2023-07-13T07:32:56;94997.09;;;31.34
45976;BMP280;31696;42.668;23.322;2023-07-13T07:34:57;94991.75;;;31.36
45976;BMP280;31696;42.668;23.322;2023-07-13T07:37:00;94976.94;;;31.21
45976;BMP280;31696;42.668;23.322;2023-07-13T07:39:01;94984.34;;;31.29
45976;BMP280;31696;42.668;23.322;2023-07-13T07:41:04;94978.41;;;31.83
45976;BMP280;31696;42.668;23.322;2023-07-13T07:43:05;94982.47;;;32.04
45976;BMP280;31696;42.668;23.322;2023-07-13T07:45:05;94970.31;;;31.42
45976;BMP280;31696;42.668;23.322;2023-07-13T07:47:06;94975.69;;;31.66
45976;BMP280;31696;42.668;23.322;2023-07-13T07:49:06;94977.00;;;31.43
45976;BMP280;31696;42.668;23.322;2023-07-13T07:51:06;94971.66;;;31.39
45976;BMP280;31696;42.668;23.322;2023-07-13T07:53:07;94966.31;;;31.76
45976;BMP280;31696;42.668;23.322;2023-07-13T07:55:07;94967.66;;;32.05
45976;BMP280;31696;42.668;23.322;2023-07-13T07:57:08;94965.00;;;31.87
45976;BMP280;31696;42.668;23.322;2023-07-13T07:59:08;94965.63;;;31.43
45976;BMP280;31696;42.668;23.322;2023-07-13T08:01:08;94960.81;;;31.05
45976;BMP280;31696;42.668;23.322;2023-07-13T08:03:09;94972.94;;;31.22
45976;BMP280;31696;42.668;23.322;2023-07-13T08:05:10;94948.84;;;31.46
45976;BMP280;31696;42.668;23.322;2023-07-13T08:07:10;94944.84;;;31.57
45976;BMP280;31696;42.668;23.322;2023-07-13T08:09:10;94950.22;;;31.63
45976;BMP280;31696;42.668;23.322;2023-07-13T08:11:11;94943.50;;;32.19
45976;BMP280;31696;42.668;23.322;2023-07-13T08:13:11;94946.19;;;31.81
45976;BMP280;31696;42.668;23.322;2023-07-13T08:15:13;94943.50;;;31.91
45976;BMP280;31696;42.668;23.322;2023-07-13T08:17:13;94946.19;;;32.01
45976;BMP280;31696;42.668;23.322;2023-07-13T08:19:14;94944.78;;;32.44
45976;BMP280;31696;42.668;23.322;2023-07-13T08:21:14;94939.44;;;32.34
45976;BMP280;31696;42.668;23.322;2023-07-13T08:23:15;94939.44;;;32.20
45976;BMP280;31696;42.668;23.322;2023-07-13T08:25:16;94942.84;;;32.00
45976;BMP280;31696;42.668;23.322;2023-07-13T08:27:17;94933.44;;;32.03
45976;BMP280;31696;42.668;23.322;2023-07-13T08:29:17;94936.81;;;31.80
45976;BMP280;31696;42.668;23.322;2023-07-13T08:31:18;94934.09;;;31.53
45976;BMP280;31696;42.668;23.322;2023-07-13T08:33:19;94928.75;;;31.84
45976;BMP280;31696;42.668;23.322;2023-07-13T08:35:19;94932.13;;;31.82
45976;BMP280;31696;42.668;23.322;2023-07-13T08:37:19;94926.06;;;31.84
45976;BMP280;31696;42.668;23.322;2023-07-13T08:39:20;94922.03;;;31.73
45976;BMP280;31696;42.668;23.322;2023-07-13T08:41:21;94922.03;;;32.03
45976;BMP280;31696;42.668;23.322;2023-07-13T08:43:39;94923.38;;;32.02
45976;BMP280;31696;42.668;23.322;2023-07-13T08:47:44;94916.00;;;32.14
45976;BMP280;31696;42.668;23.322;2023-07-13T08:49:45;94914.63;;;32.01
45976;BMP280;31696;42.668;23.322;2023-07-13T08:53:57;94929.38;;;32.26
45976;BMP280;31696;42.668;23.322;2023-07-13T08:55:58;94932.09;;;32.06
45976;BMP280;31696;42.668;23.322;2023-07-13T08:58:00;94922.00;;;32.05
45976;BMP280;31696;42.668;23.322;2023-07-13T09:00:02;94928.72;;;32.10
45976;BMP280;31696;42.668;23.322;2023-07-13T09:02:25;94928.72;;;32.00
45976;BMP280;31696;42.668;23.322;2023-07-13T09:04:27;94940.78;;;32.23
45976;BMP280;31696;42.668;23.322;2023-07-13T09:06:43;94948.84;;;32.25
45976;BMP280;31696;42.668;23.322;2023-07-13T09:08:55;94951.53;;;32.15
45976;BMP280;31696;42.668;23.322;2023-07-13T09:15:31;94947.50;;;32.30
45976;BMP280;31696;42.668;23.322;2023-07-13T09:17:37;94951.50;;;32.45
45976;BMP280;31696;42.668;23.322;2023-07-13T09:19:40;94948.16;;;32.36
45976;BMP280;31696;42.668;23.322;2023-07-13T09:21:41;94940.13;;;32.10
45976;BMP280;31696;42.668;23.322;2023-07-13T09:23:43;94951.50;;;32.45
45976;BMP280;31696;42.668;23.322;2023-07-13T09:25:44;94951.53;;;32.27
45976;BMP280;31696;42.668;23.322;2023-07-13T09:27:45;94948.84;;;32.29
45976;BMP280;31696;42.668;23.322;2023-07-13T09:29:47;94950.22;;;32.12
45976;BMP280;31696;42.668;23.322;2023-07-13T09:31:50;94959.56;;;32.31
45976;BMP280;31696;42.668;23.322;2023-07-13T09:33:53;94947.50;;;32.34
45976;BMP280;31696;42.668;23.322;2023-07-13T09:35:53;94950.88;;;32.12
45976;BMP280;31696;42.668;23.322;2023-07-13T09:37:57;94952.91;;;32.22
45976;BMP280;31696;42.668;23.322;2023-07-13T09:39:58;94946.19;;;32.01
45976;BMP280;31696;42.668;23.322;2023-07-13T09:44:11;94946.19;;;31.95
45976;BMP280;31696;42.668;23.322;2023-07-13T09:46:21;94934.78;;;32.00
45976;BMP280;31696;42.668;23.322;2023-07-13T09:48:22;94927.41;;;31.99
45976;BMP280;31696;42.668;23.322;2023-07-13T09:50:24;94922.06;;;31.93
45976;BMP280;31696;42.668;23.322;2023-07-13T09:52:25;94924.72;;;31.60
45976;BMP280;31696;42.668;23.322;2023-07-13T09:54:27;94915.31;;;31.90
45976;BMP280;31696;42.668;23.322;2023-07-13T09:56:28;94909.31;;;31.93
45976;BMP280;31696;42.668;23.322;2023-07-13T09:58:32;94905.94;;;31.87
45976;BMP280;31696;42.668;23.322;2023-07-13T10:00:35;94908.59;;;31.99
45976;BMP280;31696;42.668;23.322;2023-07-13T10:02:41;94920.72;;;31.67
45976;BMP280;31696;42.668;23.322;2023-07-13T10:04:44;94905.28;;;31.78
45976;BMP280;31696;42.668;23.322;2023-07-13T10:06:45;94893.84;;;31.80
45976;BMP280;31696;42.668;23.322;2023-07-13T10:08:46;94893.22;;;31.63
45976;BMP280;31696;42.668;23.322;2023-07-13T10:10:53;94893.88;;;31.72
45976;BMP280;31696;42.668;23.322;2023-07-13T10:12:55;94887.13;;;31.87
45976;BMP280;31696;42.668;23.322;2023-07-13T10:14:59;94885.81;;;31.78
45976;BMP280;31696;42.668;23.322;2023-07-13T10:17:00;94893.19;;;31.73
45976;BMP280;31696;42.668;23.322;2023-07-13T10:19:12;94882.44;;;31.81
45976;BMP280;31696;42.668;23.322;2023-07-13T10:21:16;94899.22;;;31.92
45976;BMP280;31696;42.668;23.322;2023-07-13T10:23:20;94901.91;;;32.04
45976;BMP280;31696;42.668;23.322;2023-07-13T10:25:26;94886.44;;;32.04
45976;BMP280;31696;42.668;23.322;2023-07-13T10:27:32;94884.41;;;32.11
45976;BMP280;31696;42.668;23.322;2023-07-13T10:29:37;94875.69;;;32.18
45976;BMP280;31696;42.668;23.322;2023-07-13T10:31:38;94869.56;;;32.36
45976;BMP280;31696;42.668;23.322;2023-07-13T10:33:39;94878.97;;;32.39
45976;BMP280;31696;42.668;23.322;2023-07-13T10:35:40;94864.19;;;32.44
45976;BMP280;31696;42.668;23.322;2023-07-13T10:37:47;94865.59;;;32.23
45976;BMP280;31696;42.668;23.322;2023-07-13T10:39:49;94856.16;;;32.38
45976;BMP280;31696;42.668;23.322;2023-07-13T10:41:52;94854.13;;;32.36
45976;BMP280;31696;42.668;23.322;2023-07-13T10:43:54;94852.75;;;32.47
45976;BMP280;31696;42.668;23.322;2023-07-13T10:45:55;94850.78;;;32.38
45976;BMP280;31696;42.668;23.322;2023-07-13T10:47:56;94853.44;;;32.46
45976;BMP280;31696;42.668;23.322;2023-07-13T10:49:57;94850.72;;;32.50
45976;BMP280;31696;42.668;23.322;2023-07-13T10:51:58;94846.00;;;32.54
45976;BMP280;31696;42.668;23.322;2023-07-13T10:54:18;94845.41;;;32.38
45976;BMP280;31696;42.668;23.322;2023-07-13T10:58:31;94833.25;;;32.49
45976;BMP280;31696;42.668;23.322;2023-07-13T11:00:32;94837.31;;;32.40
45976;BMP280;31696;42.668;23.322;2023-07-13T11:02:35;94823.88;;;32.48
45976;BMP280;31696;42.668;23.322;2023-07-13T11:04:53;94835.88;;;32.65
45976;BMP280;31696;42.668;23.322;2023-07-13T11:06:58;94831.16;;;32.67
45976;BMP280;31696;42.668;23.322;2023-07-13T11:15:44;94803.66;;;32.57
45976;BMP280;31696;42.668;23.322;2023-07-13T11:17:47;94802.28;;;32.62
45976;BMP280;31696;42.668;23.322;2023-07-13T11:19:50;94796.88;;;32.68
45976;BMP280;31696;42.668;23.322;2023-07-13T11:28:31;94792.72;;;32.87
45976;BMP280;31696;42.668;23.322;2023-07-13T11:30:36;94796.13;;;32.81
45976;BMP280;31696;42.668;23.322;2023-07-13T11:32:36;94793.41;;;32.90
45976;BMP280;31696;42.668;23.322;2023-07-13T11:34:38;94795.34;;;32.97
45976;BMP280;31696;42.668;23.322;2023-07-13T11:36:38;94798.16;;;32.79
45976;BMP280;31696;42.668;23.322;2023-07-13T11:38:43;94798.13;;;32.85
45976;BMP280;31696;42.668;23.322;2023-07-13T11:40:44;94782.63;;;32.87
45976;BMP280;31696;42.668;23.322;2023-07-13T11:42:45;94784.59;;;32.97
45976;BMP280;31696;42.668;23.322;2023-07-13T11:44:47;94783.31;;;32.88
45976;BMP280;31696;42.668;23.322;2023-07-13T11:46:48;94784.53;;;33.01
45976;BMP280;31696;42.668;23.322;2023-07-13T11:48:50;94779.16;;;33.01
45976;BMP280;31696;42.668;23.322;2023-07-13T11:50:53;94785.97;;;32.94
45976;BMP280;31696;42.668;23.322;2023-07-13T11:52:54;94778.53;;;32.97
45976;BMP280;31696;42.668;23.322;2023-07-13T11:54:56;94770.44;;;33.03
45976;BMP280;31696;42.668;23.322;2023-07-13T11:56:58;94783.22;;;32.98
45976;BMP280;31696;42.668;23.322;2023-07-13T11:59:04;94759.03;;;32.98